Time;durP1;ratioP1;P1;durP2;ratioP2;P2;SDS_P1;SDS_P2;PMS_P1;PMS_P2;Temp;Humidity;BMP_temperature;BMP_pressure;BME280_temperature;BME280_humidity;BME280_pressure;Samples;Min_cycle;Max_cycle;Signal;HPM_P1;HPM_P2
2023/10/06 00:01:51;;;;;;;5.43;2.73;;;10.70;99.90;;;;;;4994294;28;20224;-43
2023/10/06 00:04:18;;;;;;;4.77;2.70;;;10.70;99.90;;;;;;4993900;28;20284;-42
2023/10/06 00:06:48;;;;;;;8.67;3.20;;;10.70;99.90;;;;;;4992947;28;20179;-42
2023/10/06 00:09:28;;;;;;;6.83;2.40;;;10.70;99.90;;;;;;4992980;28;20206;-43
2023/10/06 00:11:54;;;;;;;8.33;2.60;;;10.80;99.90;;;;;;4994205;28;20170;-43
2023/10/06 00:14:38;;;;;;;7.10;2.73;;;10.80;99.90;;;;;;4992660;28;20178;-43
2023/10/06 00:17:11;;;;;;;7.77;2.60;;;10.80;99.90;;;;;;4997150;28;20252;-43
2023/10/06 00:19:39;;;;;;;6.10;2.97;;;10.80;99.90;;;;;;4998143;28;20335;-43
2023/10/06 00:24:43;;;;;;;7.23;2.60;;;10.80;99.90;;;;;;4997813;28;20592;-44
2023/10/06 00:27:12;;;;;;;7.93;3.10;;;10.80;99.90;;;;;;4996544;28;20380;-44
2023/10/06 00:29:43;;;;;;;8.63;3.40;;;10.90;99.90;;;;;;4997828;28;20230;-43
2023/10/06 00:32:21;;;;;;;11.80;3.07;;;10.90;99.90;;;;;;4996492;28;20178;-43
2023/10/06 00:34:52;;;;;;;5.13;2.73;;;10.90;99.90;;;;;;4998071;28;20641;-43
2023/10/06 00:37:23;;;;;;;5.57;2.50;;;10.90;99.90;;;;;;4996331;28;20178;-41
2023/10/06 00:39:50;;;;;;;7.93;2.53;;;11.00;99.90;;;;;;4996277;28;20202;-45
2023/10/06 00:42:20;;;;;;;7.47;3.50;;;11.00;99.90;;;;;;4996405;28;20588;-43
2023/10/06 00:44:46;;;;;;;7.80;2.77;;;11.00;99.90;;;;;;4996489;28;20202;-43
2023/10/06 00:47:17;;;;;;;6.07;3.00;;;11.00;99.90;;;;;;4998056;28;20184;-44
2023/10/06 00:49:43;;;;;;;7.30;2.90;;;11.00;99.90;;;;;;4998097;28;20197;-44
2023/10/06 00:52:12;;;;;;;6.13;2.53;;;11.00;99.90;;;;;;4997965;28;20634;-43
2023/10/06 00:54:44;;;;;;;7.43;3.30;;;11.00;99.90;;;;;;4996281;28;20194;-44
2023/10/06 00:57:17;;;;;;;5.53;2.73;;;11.00;99.90;;;;;;4997315;28;20174;-42
2023/10/06 00:59:43;;;;;;;6.27;2.63;;;11.00;99.90;;;;;;4997174;28;20224;-44
2023/10/06 01:02:11;;;;;;;5.10;2.60;;;11.00;99.90;;;;;;4996013;28;20178;-41
2023/10/06 01:04:43;;;;;;;6.50;2.60;;;11.00;99.90;;;;;;4997538;28;20284;-43
2023/10/06 01:07:12;;;;;;;6.70;2.77;;;11.00;99.90;;;;;;4997119;28;20209;-42
2023/10/06 01:09:39;;;;;;;4.03;2.47;;;11.00;99.90;;;;;;4995719;28;20700;-44
2023/10/06 01:12:11;;;;;;;6.27;2.70;;;11.00;99.90;;;;;;4997076;28;20174;-43
2023/10/06 01:14:37;;;;;;;6.97;2.57;;;11.00;99.90;;;;;;4980251;28;20232;-41
2023/10/06 01:17:14;;;;;;;6.57;3.30;;;11.00;99.90;;;;;;4995609;28;20556;-39
2023/10/06 01:19:47;;;;;;;7.20;2.77;;;11.00;99.90;;;;;;4997024;28;20240;-44
2023/10/06 01:22:24;;;;;;;7.30;2.93;;;11.00;99.90;;;;;;4995996;28;20200;-41
2023/10/06 01:24:53;;;;;;;9.03;3.00;;;10.90;99.90;;;;;;4996943;28;20256;-42
2023/10/06 01:27:25;;;;;;;7.40;2.60;;;10.90;99.90;;;;;;4995327;28;20179;-43
2023/10/06 01:30:14;;;;;;;6.90;2.90;;;10.90;99.90;;;;;;4995365;28;20202;-43
2023/10/06 01:32:41;;;;;;;4.97;2.73;;;11.00;99.90;;;;;;4995457;28;20231;-43
2023/10/06 01:35:12;;;;;;;7.23;3.00;;;11.00;99.90;;;;;;4996822;28;20174;-43
2023/10/06 01:37:42;;;;;;;4.63;2.60;;;11.00;99.90;;;;;;4996798;28;20195;-42
2023/10/06 01:40:34;;;;;;;9.33;3.00;;;11.00;99.90;;;;;;4996355;28;20749;-44
2023/10/06 01:42:58;;;;;;;7.27;2.50;;;11.10;99.90;;;;;;4996237;28;20186;-42
2023/10/06 01:45:24;;;;;;;7.40;2.43;;;11.10;99.90;;;;;;4995139;28;20182;-41
2023/10/06 01:48:18;;;;;;;11.23;3.13;;;11.10;99.90;;;;;;4996635;28;20522;-44
2023/10/06 01:50:43;;;;;;;11.87;3.00;;;11.00;99.90;;;;;;4996082;28;20638;-41
2023/10/06 01:53:11;;;;;;;8.60;2.70;;;11.00;99.90;;;;;;4995030;28;20269;-43
2023/10/06 01:55:39;;;;;;;9.97;2.80;;;10.90;99.90;;;;;;4996212;28;20668;-42
2023/10/06 01:58:07;;;;;;;4.80;2.57;;;11.00;99.90;;;;;;4996171;28;20205;-42
2023/10/06 02:00:35;;;;;;;7.80;3.00;;;10.90;99.90;;;;;;4996065;28;20726;-42
2023/10/06 02:03:11;;;;;;;6.53;2.60;;;10.80;99.90;;;;;;4994682;28;20252;-43
2023/10/06 02:05:40;;;;;;;6.87;2.77;;;10.80;99.90;;;;;;4994700;28;20174;-43
2023/10/06 02:08:09;;;;;;;3.70;2.33;;;10.80;99.90;;;;;;4994718;28;20193;-43
2023/10/06 02:10:40;;;;;;;7.73;2.90;;;10.80;99.90;;;;;;4995749;28;20692;-42
2023/10/06 02:13:06;;;;;;;8.20;2.83;;;10.70;99.90;;;;;;4996224;28;20229;-42
2023/10/06 02:15:32;;;;;;;4.73;2.60;;;10.70;99.90;;;;;;4995774;28;20583;-44
2023/10/06 02:18:02;;;;;;;9.93;3.00;;;10.70;99.90;;;;;;4994459;28;20186;-44
2023/10/06 02:22:55;;;;;;;5.43;2.77;;;10.60;99.90;;;;;;4995837;28;20221;-43
2023/10/06 02:25:22;;;;;;;5.27;3.10;;;10.60;99.90;;;;;;4994332;28;20588;-44
2023/10/06 02:27:50;;;;;;;6.27;2.20;;;10.50;99.90;;;;;;4995520;28;20194;-43
2023/10/06 02:30:19;;;;;;;7.50;2.67;;;10.50;99.90;;;;;;4995693;28;20210;-43
2023/10/06 02:32:45;;;;;;;7.73;2.37;;;10.50;99.90;;;;;;4995470;28;20539;-45
2023/10/06 02:35:12;;;;;;;5.37;2.57;;;10.50;99.90;;;;;;4995344;28;20241;-42
2023/10/06 02:37:39;;;;;;;6.57;2.10;;;10.50;99.90;;;;;;4995633;28;20210;-42
2023/10/06 02:40:13;;;;;;;5.50;2.43;;;10.50;99.90;;;;;;4994816;28;20190;-43
2023/10/06 02:42:53;;;;;;;6.97;2.70;;;10.50;99.90;;;;;;4995373;28;20193;-42
2023/10/06 02:45:21;;;;;;;6.47;2.37;;;10.50;99.90;;;;;;4994286;28;20198;-42
2023/10/06 02:47:48;;;;;;;7.50;2.40;;;10.40;99.90;;;;;;4994175;28;20648;-42
2023/10/06 02:50:18;;;;;;;5.77;2.77;;;10.50;99.90;;;;;;4995871;28;20651;-42
2023/10/06 02:52:46;;;;;;;8.93;2.67;;;10.50;99.90;;;;;;4995166;28;20198;-42
2023/10/06 02:55:13;;;;;;;7.77;2.70;;;10.50;99.90;;;;;;4995037;28;20275;-42
2023/10/06 02:57:41;;;;;;;7.93;2.33;;;10.50;99.90;;;;;;4994905;28;20224;-43
2023/10/06 03:02:55;;;;;;;6.47;2.60;;;10.40;99.90;;;;;;4994850;28;20170;-43
2023/10/06 03:05:30;;;;;;;8.63;2.30;;;10.40;99.90;;;;;;4995187;28;20193;-43
2023/10/06 03:07:56;;;;;;;5.97;2.27;;;10.40;99.90;;;;;;4994909;28;20158;-43
2023/10/06 03:10:26;;;;;;;6.33;2.63;;;10.40;99.90;;;;;;4994798;28;20256;-42
2023/10/06 03:12:52;;;;;;;7.10;2.33;;;10.40;99.90;;;;;;4993649;28;20668;-42
2023/10/06 03:15:35;;;;;;;4.97;2.60;;;10.40;99.90;;;;;;4993452;28;20268;-43
2023/10/06 03:18:03;;;;;;;6.27;2.83;;;10.40;99.90;;;;;;4993437;28;20182;-41
2023/10/06 03:20:40;;;;;;;4.60;2.33;;;10.40;99.90;;;;;;4994531;28;20201;-40
2023/10/06 03:23:16;;;;;;;8.43;2.90;;;10.40;99.90;;;;;;4994540;28;20197;-39
2023/10/06 03:25:42;;;;;;;8.70;2.43;;;10.40;99.90;;;;;;4994806;28;20517;-42
2023/10/06 03:28:11;;;;;;;9.80;2.57;;;10.40;99.90;;;;;;4994819;28;20200;-40
2023/10/06 03:30:37;;;;;;;7.03;2.30;;;10.40;99.90;;;;;;4994671;28;20205;-42
2023/10/06 03:33:03;;;;;;;6.60;2.57;;;10.40;99.90;;;;;;4994657;28;20185;-42
2023/10/06 03:35:45;;;;;;;6.40;2.87;;;10.30;99.90;;;;;;4994316;28;20190;-43
2023/10/06 03:43:36;;;;;;;4.73;2.43;;;10.40;99.90;;;;;;4994570;28;20233;-41
2023/10/06 03:46:02;;;;;;;11.10;2.47;;;10.30;99.90;;;;;;4994337;28;20207;-40
2023/10/06 03:48:31;;;;;;;9.63;3.17;;;10.30;99.90;;;;;;4994467;28;20182;-41
2023/10/06 03:50:58;;;;;;;6.77;2.47;;;10.40;99.90;;;;;;4993376;28;20280;-40
2023/10/06 03:53:24;;;;;;;10.47;2.57;;;10.40;99.90;;;;;;4994074;28;20264;-41
2023/10/06 03:55:50;;;;;;;5.77;2.60;;;10.30;99.90;;;;;;4992795;28;20193;-42
2023/10/06 04:06:12;;;;;;;8.30;2.77;;;10.40;99.90;;;;;;3343678;26;20228;-41
2023/10/06 04:08:44;;;;;;;4.20;2.90;;;10.30;99.90;;;;;;5012316;28;20189;-41
2023/10/06 04:11:14;;;;;;;7.30;2.67;;;10.30;99.90;;;;;;5013680;28;20208;-43
2023/10/06 04:13:40;;;;;;;6.57;2.60;;;10.30;99.90;;;;;;5013466;28;20180;-42
2023/10/06 04:16:06;;;;;;;3.73;2.27;;;10.30;99.90;;;;;;5013413;28;20184;-41
2023/10/06 04:18:32;;;;;;;5.87;2.03;;;10.30;99.90;;;;;;5013469;28;20185;-42
2023/10/06 04:20:58;;;;;;;5.50;2.50;;;10.30;99.90;;;;;;5013453;28;20201;-42
2023/10/06 04:23:24;;;;;;;8.90;2.67;;;10.30;99.90;;;;;;5013564;28;20680;-41
2023/10/06 04:25:55;;;;;;;6.00;2.70;;;10.20;99.90;;;;;;5013698;28;20242;-43
2023/10/06 04:28:25;;;;;;;7.03;2.33;;;10.20;99.90;;;;;;5013372;28;20249;-41
2023/10/06 04:30:51;;;;;;;5.40;2.23;;;10.30;99.90;;;;;;5013358;28;20192;-44
2023/10/06 04:33:21;;;;;;;7.30;2.60;;;10.20;99.90;;;;;;5013352;28;20193;-41
2023/10/06 04:36:20;;;;;;;7.90;2.53;;;10.20;99.90;;;;;;5013961;28;20189;-41
2023/10/06 04:38:45;;;;;;;6.37;2.30;;;10.20;99.90;;;;;;5012002;28;20221;-44
2023/10/06 04:41:11;;;;;;;8.20;2.73;;;10.20;99.90;;;;;;5013235;28;20288;-45
2023/10/06 04:43:39;;;;;;;5.33;2.80;;;10.20;99.90;;;;;;5013770;28;20282;-43
2023/10/06 04:46:05;;;;;;;9.97;2.50;;;10.20;99.90;;;;;;5012340;28;20672;-44
2023/10/06 04:48:35;;;;;;;6.17;2.83;;;10.20;99.90;;;;;;5012013;28;20185;-41
2023/10/06 04:51:03;;;;;;;4.10;2.50;;;10.20;99.90;;;;;;5013417;28;20205;-41
2023/10/06 04:53:30;;;;;;;9.23;2.70;;;10.10;99.90;;;;;;5011893;28;20204;-44
2023/10/06 04:55:57;;;;;;;7.40;2.67;;;10.10;99.90;;;;;;4995542;28;20232;-43
2023/10/06 04:58:23;;;;;;;5.17;2.47;;;10.10;99.90;;;;;;5011793;28;20177;-42
2023/10/06 05:00:53;;;;;;;9.33;2.53;;;10.10;99.90;;;;;;5013192;28;20216;-43
2023/10/06 05:03:19;;;;;;;5.97;2.43;;;10.00;99.90;;;;;;5016229;28;20554;-44
2023/10/06 05:05:45;;;;;;;5.53;2.10;;;10.00;99.90;;;;;;5015341;28;20196;-41
2023/10/06 05:08:14;;;;;;;7.83;2.27;;;10.00;99.90;;;;;;5016915;28;20188;-41
2023/10/06 05:10:41;;;;;;;6.07;2.70;;;9.90;99.90;;;;;;5016687;28;20197;-43
2023/10/06 05:13:07;;;;;;;6.10;2.20;;;9.90;99.90;;;;;;5016593;28;20184;-44
2023/10/06 05:15:34;;;;;;;4.57;2.43;;;9.90;99.90;;;;;;5015518;28;20575;-40
2023/10/06 05:18:02;;;;;;;6.97;2.80;;;9.90;99.90;;;;;;5016778;28;20203;-42
2023/10/06 05:20:37;;;;;;;4.43;1.97;;;9.90;99.90;;;;;;5016596;28;20578;-40
2023/10/06 05:23:11;;;;;;;8.27;2.87;;;9.80;99.90;;;;;;4998763;28;20577;-43
2023/10/06 05:25:37;;;;;;;7.97;2.60;;;9.80;99.90;;;;;;5016440;28;20159;-43
2023/10/06 05:28:04;;;;;;;4.20;2.60;;;9.80;99.90;;;;;;5015025;28;20176;-43
2023/10/06 05:30:31;;;;;;;8.37;2.90;;;9.80;99.90;;;;;;5016162;28;20210;-42
2023/10/06 05:32:58;;;;;;;5.57;2.27;;;9.70;99.90;;;;;;5016338;28;20189;-42
2023/10/06 05:35:27;;;;;;;4.43;2.50;;;9.80;99.90;;;;;;5016027;28;20259;-41
2023/10/06 05:37:53;;;;;;;8.17;3.00;;;9.80;99.90;;;;;;5014866;28;20185;-42
2023/10/06 05:40:22;;;;;;;6.13;2.50;;;9.80;99.90;;;;;;5016218;28;20679;-43
2023/10/06 05:42:51;;;;;;;6.13;2.50;;;9.80;99.90;;;;;;5016072;28;20180;-44
2023/10/06 05:45:20;;;;;;;6.07;2.67;;;9.80;99.90;;;;;;5016213;28;20184;-41
2023/10/06 05:47:48;;;;;;;6.87;2.27;;;9.80;99.90;;;;;;5014647;28;20664;-42
2023/10/06 05:50:29;;;;;;;6.20;2.40;;;9.80;99.90;;;;;;5015833;28;20701;-39
2023/10/06 05:53:03;;;;;;;6.70;2.90;;;9.80;99.90;;;;;;5015737;28;20192;-44
2023/10/06 05:55:37;;;;;;;7.93;2.60;;;9.80;99.90;;;;;;5015887;28;20625;-41
2023/10/06 05:58:09;;;;;;;9.23;2.80;;;9.90;99.90;;;;;;5015733;28;20162;-42
2023/10/06 06:00:43;;;;;;;6.07;2.50;;;9.90;99.90;;;;;;5015709;28;20560;-41
2023/10/06 06:03:10;;;;;;;6.67;2.43;;;9.90;99.90;;;;;;5014435;28;20694;-41
2023/10/06 06:05:40;;;;;;;9.47;2.77;;;10.00;99.90;;;;;;5015486;28;20205;-41
2023/10/06 06:08:08;;;;;;;7.17;2.13;;;10.00;99.90;;;;;;5014335;28;20188;-42
2023/10/06 06:10:37;;;;;;;5.43;2.60;;;10.00;99.90;;;;;;5015354;28;20208;-41
2023/10/06 06:13:04;;;;;;;8.23;2.43;;;10.00;99.90;;;;;;5015532;28;20174;-44
2023/10/06 06:15:31;;;;;;;6.83;3.00;;;10.10;99.90;;;;;;5015196;28;20199;-42
2023/10/06 06:17:58;;;;;;;9.77;2.87;;;10.10;99.90;;;;;;5015507;28;20176;-42
2023/10/06 06:20:25;;;;;;;8.50;2.90;;;10.10;99.90;;;;;;5015289;28;20227;-40
2023/10/06 06:23:02;;;;;;;5.70;2.70;;;10.10;99.90;;;;;;5014007;28;20190;-39
2023/10/06 06:25:29;;;;;;;15.70;3.07;;;10.20;99.90;;;;;;5013945;28;20180;-40
2023/10/06 06:27:59;;;;;;;5.97;2.57;;;10.30;99.90;;;;;;5013895;28;20178;-43
2023/10/06 06:30:25;;;;;;;7.07;3.10;;;10.30;99.90;;;;;;5014124;28;20212;-42
2023/10/06 06:32:55;;;;;;;11.03;2.80;;;10.40;99.90;;;;;;5014997;28;20648;-44
2023/10/06 06:35:22;;;;;;;14.43;3.03;;;10.40;99.90;;;;;;5013850;28;20606;-41
2023/10/06 06:37:59;;;;;;;5.63;2.70;;;10.50;99.90;;;;;;5013753;28;20189;-44
2023/10/06 06:40:26;;;;;;;7.60;2.63;;;10.50;99.90;;;;;;5015170;28;20205;-42
2023/10/06 06:42:52;;;;;;;13.97;3.90;;;10.60;99.90;;;;;;5015205;28;20180;-46
2023/10/06 06:45:19;;;;;;;6.97;2.83;;;10.70;99.90;;;;;;5015143;28;20184;-42
2023/10/06 06:47:45;;;;;;;11.77;2.53;;;10.80;99.90;;;;;;5015179;28;20204;-42
2023/10/06 06:50:13;;;;;;;7.53;2.70;;;11.00;99.90;;;;;;5013509;28;20204;-42
2023/10/06 06:52:39;;;;;;;6.73;3.17;;;11.00;99.90;;;;;;5013890;28;20188;-41
2023/10/06 06:55:12;;;;;;;7.80;2.47;;;11.20;99.90;;;;;;5013882;28;20177;-42
2023/10/06 06:57:41;;;;;;;9.37;2.80;;;11.30;99.90;;;;;;5015839;28;20673;-43
2023/10/06 07:00:15;;;;;;;9.10;2.67;;;11.50;99.90;;;;;;5014275;28;20200;-42
2023/10/06 07:02:44;;;;;;;10.57;2.73;;;11.60;99.90;;;;;;5013890;28;20172;-43
2023/10/06 07:05:11;;;;;;;5.67;2.97;;;11.80;99.90;;;;;;5013106;28;20600;-43
2023/10/06 07:07:40;;;;;;;13.47;3.80;;;11.80;99.90;;;;;;5014285;28;20668;-43
2023/10/06 07:10:10;;;;;;;5.60;2.77;;;11.90;99.90;;;;;;5014591;28;20189;-41
2023/10/06 07:12:36;;;;;;;9.67;2.80;;;12.00;99.90;;;;;;5014675;28;20610;-41
2023/10/06 07:15:02;;;;;;;13.67;2.80;;;12.00;99.90;;;;;;5014276;28;20191;-42
2023/10/06 07:17:28;;;;;;;7.43;2.97;;;12.10;99.90;;;;;;5013029;28;20271;-42
2023/10/06 07:19:55;;;;;;;8.23;3.50;;;12.20;99.90;;;;;;5014473;28;20620;-49
2023/10/06 07:22:26;;;;;;;7.37;3.10;;;12.30;99.90;;;;;;4997090;23;20246;-44
2023/10/06 07:24:55;;;;;;;7.30;2.80;;;12.40;99.90;;;;;;4993479;28;20217;-42
2023/10/06 07:27:21;;;;;;;9.97;3.33;;;12.50;99.90;;;;;;4994964;28;20169;-43
2023/10/06 07:29:51;;;;;;;9.77;3.23;;;12.60;99.90;;;;;;4994484;28;20720;-39
2023/10/06 07:32:16;;;;;;;5.93;2.70;;;12.70;99.90;;;;;;4993452;28;20192;-43
2023/10/06 07:34:42;;;;;;;9.77;3.03;;;12.80;99.90;;;;;;4993453;28;20190;-41
2023/10/06 07:37:08;;;;;;;4.50;2.37;;;12.80;99.90;;;;;;4994668;28;20181;-43
2023/10/06 07:39:34;;;;;;;8.33;2.73;;;12.90;99.90;;;;;;4994830;28;20585;-43
2023/10/06 07:41:59;;;;;;;7.70;2.57;;;12.90;99.90;;;;;;4994809;28;20186;-43
2023/10/06 07:44:25;;;;;;;6.27;3.00;;;13.00;99.90;;;;;;4995085;28;20224;-42
2023/10/06 07:46:52;;;;;;;4.80;2.83;;;13.00;99.90;;;;;;4995149;28;20178;-42
2023/10/06 07:49:18;;;;;;;6.77;3.10;;;13.00;99.90;;;;;;4995722;28;20186;-38
2023/10/06 07:51:45;;;;;;;8.10;3.47;;;13.00;99.90;;;;;;4994874;28;20179;-43
2023/10/06 07:54:11;;;;;;;9.87;2.70;;;13.00;99.90;;;;;;4995193;28;20177;-41
2023/10/06 07:56:36;;;;;;;7.43;2.77;;;13.20;99.90;;;;;;4994967;28;20182;-43
2023/10/06 07:59:02;;;;;;;5.80;2.47;;;13.20;99.90;;;;;;4995895;28;20205;-42
2023/10/06 08:01:28;;;;;;;12.27;3.00;;;13.40;99.90;;;;;;4995044;28;20205;-43
2023/10/06 08:03:54;;;;;;;7.73;2.97;;;13.40;99.90;;;;;;4993078;28;20272;-43
2023/10/06 08:06:20;;;;;;;11.73;3.60;;;13.50;99.90;;;;;;4994087;28;20200;-39
2023/10/06 08:08:48;;;;;;;7.53;2.57;;;13.60;99.90;;;;;;4994529;28;20163;-42
2023/10/06 08:11:13;;;;;;;10.67;2.80;;;13.70;99.90;;;;;;4994159;28;20561;-40
2023/10/06 08:13:40;;;;;;;11.07;3.27;;;13.70;99.90;;;;;;4994522;28;20261;-41
2023/10/06 08:16:06;;;;;;;13.13;3.10;;;13.70;99.90;;;;;;4994555;28;20271;-42
2023/10/06 08:18:33;;;;;;;8.90;3.07;;;13.80;99.90;;;;;;4995528;28;20639;-43
2023/10/06 08:21:03;;;;;;;8.37;3.00;;;13.80;99.90;;;;;;4994150;28;20202;-41
2023/10/06 08:23:32;;;;;;;7.57;2.53;;;13.90;99.90;;;;;;4993997;28;20213;-41
2023/10/06 08:25:58;;;;;;;7.77;2.93;;;14.00;99.90;;;;;;4994152;28;20190;-42
2023/10/06 08:28:26;;;;;;;10.57;3.07;;;14.10;99.90;;;;;;4994358;28;20174;-42
2023/10/06 08:30:54;;;;;;;8.90;2.90;;;14.20;99.90;;;;;;4994267;28;20558;-38
2023/10/06 08:33:20;;;;;;;8.77;2.67;;;14.30;99.90;;;;;;4993973;28;20182;-44
2023/10/06 08:35:45;;;;;;;8.33;3.07;;;14.40;99.90;;;;;;4993947;28;20672;-40
2023/10/06 08:38:11;;;;;;;9.30;2.87;;;14.60;99.90;;;;;;4996860;28;20178;-42
2023/10/06 08:40:41;;;;;;;10.47;3.00;;;14.70;99.90;;;;;;4997552;28;20280;-41
2023/10/06 08:43:07;;;;;;;7.67;2.87;;;14.80;99.90;;;;;;4997460;28;20174;-44
2023/10/06 08:45:40;;;;;;;9.13;3.47;;;14.90;99.90;;;;;;4997776;28;20167;-42
2023/10/06 08:48:12;;;;;;;4.57;2.37;;;15.10;99.90;;;;;;4996705;28;20165;-43
2023/10/06 08:50:38;;;;;;;10.80;2.90;;;15.10;99.90;;;;;;4997348;28;20686;-41
2023/10/06 08:53:05;;;;;;;7.77;2.67;;;15.20;99.90;;;;;;4996152;28;20210;-41
2023/10/06 08:55:32;;;;;;;14.03;3.20;;;15.40;99.90;;;;;;4996439;28;20233;-42
2023/10/06 08:58:00;;;;;;;8.33;2.87;;;15.50;99.90;;;;;;4995932;28;20193;-41
2023/10/06 09:00:31;;;;;;;7.50;2.93;;;15.60;99.90;;;;;;4997034;28;20205;-42
2023/10/06 09:03:07;;;;;;;9.27;3.80;;;15.70;99.90;;;;;;4997347;28;20167;-42
2023/10/06 09:05:37;;;;;;;8.47;2.90;;;15.80;99.90;;;;;;4997285;28;20166;-44
2023/10/06 09:08:09;;;;;;;10.10;3.07;;;15.90;99.90;;;;;;4995674;28;20178;-42
2023/10/06 09:10:42;;;;;;;8.20;3.27;;;15.90;99.90;;;;;;4996976;28;20199;-42
2023/10/06 09:13:16;;;;;;;11.90;3.13;;;16.00;98.20;;;;;;4996512;28;20254;-41
2023/10/06 09:15:43;;;;;;;6.70;2.90;;;16.20;95.40;;;;;;4996903;28;20184;-42
2023/10/06 09:18:18;;;;;;;8.23;3.03;;;16.20;92.80;;;;;;4997013;28;20174;-44
2023/10/06 09:20:45;;;;;;;30.70;3.27;;;16.30;94.90;;;;;;4996933;28;20205;-44
2023/10/06 09:23:11;;;;;;;6.87;2.60;;;16.30;90.90;;;;;;4995484;28;20661;-44
2023/10/06 09:25:47;;;;;;;6.97;2.87;;;16.40;92.60;;;;;;4995452;28;20194;-48
2023/10/06 09:28:17;;;;;;;6.83;2.90;;;16.50;96.40;;;;;;4996970;28;20313;-48
2023/10/06 09:30:51;;;;;;;6.83;2.50;;;16.60;80.40;;;;;;4996077;28;20217;-48
2023/10/06 09:33:23;;;;;;;6.60;2.50;;;16.70;90.10;;;;;;4995341;28;20178;-49
2023/10/06 09:36:01;;;;;;;7.57;2.63;;;16.80;83.40;;;;;;4996452;28;20575;-48
2023/10/06 09:38:26;;;;;;;11.27;3.10;;;16.90;83.90;;;;;;4995206;28;20815;-47
2023/10/06 09:40:52;;;;;;;11.53;2.33;;;17.00;77.90;;;;;;4996513;28;20202;-48
2023/10/06 09:43:19;;;;;;;8.50;3.33;;;17.00;79.60;;;;;;4995028;28;20265;-48
2023/10/06 09:45:47;;;;;;;14.27;2.93;;;17.10;74.40;;;;;;4996556;28;20191;-47
2023/10/06 09:48:15;;;;;;;10.17;2.73;;;17.20;73.60;;;;;;4993886;28;20557;-47
2023/10/06 09:50:46;;;;;;;9.73;2.60;;;17.30;63.00;;;;;;4996096;28;20218;-46
2023/10/06 09:53:12;;;;;;;12.77;2.67;;;17.30;70.20;;;;;;4995185;28;20638;-48
2023/10/06 09:55:41;;;;;;;10.80;3.10;;;17.40;71.20;;;;;;4996421;28;20548;-47
2023/10/06 09:58:08;;;;;;;8.80;2.60;;;17.40;82.30;;;;;;4996129;28;20182;-47
2023/10/06 10:00:39;;;;;;;6.57;2.33;;;17.50;86.10;;;;;;4978569;28;20202;-47
2023/10/06 10:03:08;;;;;;;8.07;2.50;;;17.60;77.70;;;;;;4995917;28;20163;-48
2023/10/06 10:05:38;;;;;;;6.97;2.63;;;17.70;71.00;;;;;;4996081;28;20184;-47
2023/10/06 10:08:05;;;;;;;6.33;2.20;;;17.70;61.80;;;;;;4979065;28;20182;-48
2023/10/06 10:10:39;;;;;;;11.47;2.57;;;17.80;71.60;;;;;;4994924;28;20209;-47
2023/10/06 10:13:31;;;;;;;8.07;2.37;;;17.70;76.20;;;;;;4996207;28;20173;-50
2023/10/06 10:16:25;;;;;;;5.87;2.23;;;17.80;77.10;;;;;;4996057;28;20635;-43
2023/10/06 10:19:13;;;;;;;7.33;2.50;;;18.00;84.00;;;;;;4995741;28;20166;-44
2023/10/06 10:21:41;;;;;;;6.30;2.77;;;18.00;85.80;;;;;;4995745;28;20217;-43
2023/10/06 10:24:13;;;;;;;4.80;2.43;;;18.20;68.50;;;;;;4996157;28;20210;-41
2023/10/06 10:26:39;;;;;;;8.33;2.80;;;18.30;66.90;;;;;;4995610;28;20515;-43
2023/10/06 10:29:17;;;;;;;7.23;2.40;;;18.30;77.90;;;;;;4995708;28;20190;-43
2023/10/06 10:31:46;;;;;;;4.33;2.13;;;18.40;67.80;;;;;;4995451;28;20193;-42
2023/10/06 10:34:20;;;;;;;8.77;2.70;;;18.50;72.00;;;;;;4995757;28;20182;-42
2023/10/06 10:37:07;;;;;;;6.90;2.50;;;18.50;72.90;;;;;;4995706;28;20240;-43
2023/10/06 10:39:52;;;;;;;7.63;3.00;;;18.60;66.70;;;;;;4996095;28;20212;-40
2023/10/06 10:42:38;;;;;;;8.07;2.70;;;18.60;52.20;;;;;;4995652;28;20261;-43
2023/10/06 10:45:27;;;;;;;8.00;2.67;;;18.80;74.00;;;;;;4995423;28;20264;-45
2023/10/06 10:47:57;;;;;;;6.93;2.13;;;18.90;82.10;;;;;;4995650;28;20265;-44
2023/10/06 10:50:26;;;;;;;6.50;2.80;;;19.00;67.60;;;;;;4995034;28;20238;-42
2023/10/06 10:52:53;;;;;;;8.73;2.87;;;19.00;66.50;;;;;;4995349;28;20557;-44
2023/10/06 10:55:26;;;;;;;11.97;3.00;;;19.10;86.50;;;;;;4995007;28;20178;-42
2023/10/06 10:57:52;;;;;;;10.20;2.37;;;19.10;96.00;;;;;;4994970;28;20526;-43
2023/10/06 11:00:20;;;;;;;6.57;2.40;;;19.20;94.30;;;;;;4994519;28;20208;-40
2023/10/06 11:02:48;;;;;;;9.63;2.80;;;19.30;96.70;;;;;;4995084;28;20276;-41
2023/10/06 11:05:18;;;;;;;7.93;2.50;;;19.40;87.80;;;;;;4994744;28;20272;-43
2023/10/06 11:07:58;;;;;;;9.03;2.70;;;19.40;94.70;;;;;;4995068;28;20177;-40
2023/10/06 11:10:26;;;;;;;7.23;2.70;;;19.40;79.50;;;;;;4994695;28;20751;-42
2023/10/06 11:13:15;;;;;;;8.23;2.90;;;19.40;74.00;;;;;;4995064;28;20174;-42
2023/10/06 11:15:42;;;;;;;6.27;2.90;;;19.30;87.40;;;;;;4995055;28;20158;-42
2023/10/06 11:18:09;;;;;;;10.17;3.20;;;19.40;95.10;;;;;;4994614;28;20712;-40
2023/10/06 11:20:39;;;;;;;8.63;2.50;;;19.40;99.90;;;;;;4993297;28;20257;-43
2023/10/06 11:23:06;;;;;;;7.50;3.13;;;19.40;90.30;;;;;;4994927;28;20217;-42
2023/10/06 11:25:35;;;;;;;11.83;3.40;;;19.40;94.20;;;;;;4994758;28;20185;-43
2023/10/06 11:28:08;;;;;;;15.30;3.80;;;19.50;89.80;;;;;;4994726;28;20205;-44
2023/10/06 11:30:36;;;;;;;5.80;2.57;;;19.60;92.40;;;;;;4994844;28;20201;-43
2023/10/06 11:33:05;;;;;;;9.60;3.00;;;19.70;94.90;;;;;;4994489;28;20258;-41
2023/10/06 11:35:33;;;;;;;9.50;3.00;;;19.70;92.50;;;;;;4994648;28;20186;-42
2023/10/06 11:38:10;;;;;;;6.47;2.50;;;19.70;86.60;;;;;;4994354;28;20186;-43
2023/10/06 11:40:38;;;;;;;11.53;3.23;;;19.80;93.90;;;;;;4994734;28;20205;-43
2023/10/06 11:43:15;;;;;;;9.23;2.80;;;19.90;90.70;;;;;;4994091;28;20194;-42
2023/10/06 11:45:44;;;;;;;7.80;2.80;;;20.00;95.40;;;;;;4994151;28;20680;-43
2023/10/06 11:53:23;;;;;;;5.83;2.10;;;20.00;99.90;;;;;;5010945;28;20579;-44
2023/10/06 11:55:49;;;;;;;6.73;2.23;;;20.00;98.70;;;;;;5012340;28;20181;-41
2023/10/06 11:58:32;;;;;;;6.27;2.33;;;20.10;99.90;;;;;;5014655;28;20235;-44
2023/10/06 12:00:58;;;;;;;10.50;2.63;;;20.10;88.20;;;;;;5013779;28;20231;-43
2023/10/06 12:03:39;;;;;;;5.93;2.60;;;20.20;99.90;;;;;;5013629;28;20677;-42
2023/10/06 12:06:11;;;;;;;5.87;2.90;;;20.20;99.90;;;;;;5012215;28;20592;-44
2023/10/06 12:08:52;;;;;;;8.93;2.47;;;20.30;99.90;;;;;;5013752;28;20686;-40
2023/10/06 12:11:20;;;;;;;6.30;2.80;;;20.30;99.90;;;;;;5012815;28;20220;-42
2023/10/06 12:13:46;;;;;;;9.50;3.03;;;20.40;96.40;;;;;;5013751;28;20165;-42
2023/10/06 12:16:15;;;;;;;6.60;2.57;;;20.50;96.80;;;;;;5013697;28;20185;-41
2023/10/06 12:18:44;;;;;;;13.93;3.07;;;20.50;64.40;;;;;;5013385;28;20760;-42
2023/10/06 12:21:14;;;;;;;10.30;3.17;;;20.60;66.60;;;;;;5012082;28;20205;-43
2023/10/06 12:23:44;;;;;;;9.13;2.57;;;20.60;72.30;;;;;;5013204;28;20201;-43
2023/10/06 12:26:10;;;;;;;5.47;2.67;;;20.70;83.60;;;;;;5013322;28;20158;-43
2023/10/06 12:28:38;;;;;;;8.20;2.93;;;20.80;93.60;;;;;;5013313;28;20219;-43
2023/10/06 12:31:05;;;;;;;5.30;2.47;;;20.80;70.20;;;;;;5013460;28;20284;-44
2023/10/06 12:33:32;;;;;;;6.80;2.77;;;20.90;53.00;;;;;;5013589;28;20192;-42
2023/10/06 12:35:58;;;;;;;7.23;3.00;;;20.90;61.80;;;;;;5013139;28;20621;-42
2023/10/06 12:38:26;;;;;;;5.63;2.67;;;20.80;39.50;;;;;;5013161;28;20177;-44
2023/10/06 12:40:53;;;;;;;9.70;3.33;;;20.80;65.80;;;;;;5013304;28;20210;-43
2023/10/06 12:43:19;;;;;;;10.80;3.60;;;20.80;83.00;;;;;;5013067;28;20182;-43
2023/10/06 12:45:45;;;;;;;8.10;2.57;;;20.80;72.60;;;;;;5012209;28;20185;-43
2023/10/06 12:48:11;;;;;;;9.47;2.30;;;20.80;67.60;;;;;;5013614;28;20185;-43
2023/10/06 12:50:40;;;;;;;14.90;2.70;;;20.90;81.10;;;;;;5013212;28;20205;-41
2023/10/06 12:53:10;;;;;;;13.17;3.30;;;20.90;76.90;;;;;;5012957;28;20197;-44
2023/10/06 12:55:36;;;;;;;5.93;2.80;;;20.80;81.40;;;;;;5012621;28;20189;-43
2023/10/06 12:58:04;;;;;;;11.40;2.97;;;20.90;30.30;;;;;;5013104;28;20205;-44
2023/10/06 13:00:30;;;;;;;10.07;3.37;;;20.90;53.70;;;;;;5012959;28;20284;-43
2023/10/06 13:02:56;;;;;;;8.17;3.13;;;20.90;60.00;;;;;;5012979;28;20170;-41
2023/10/06 13:05:22;;;;;;;7.87;3.13;;;20.90;67.20;;;;;;5012820;28;20252;-40
2023/10/06 13:07:51;;;;;;;7.53;3.03;;;21.00;75.10;;;;;;5013206;28;20186;-41
2023/10/06 13:10:22;;;;;;;8.53;3.00;;;21.00;90.20;;;;;;5011826;28;20654;-40
2023/10/06 13:12:48;;;;;;;6.97;2.80;;;21.00;71.80;;;;;;5013199;28;20174;-42
2023/10/06 13:15:19;;;;;;;9.00;3.00;;;21.00;22.40;;;;;;5013334;28;20202;-41
2023/10/06 13:17:50;;;;;;;11.43;3.20;;;20.90;35.20;;;;;;5013416;28;20176;-43
2023/10/06 13:20:22;;;;;;;5.27;2.60;;;20.90;42.70;;;;;;5011672;28;20206;-42
2023/10/06 13:22:49;;;;;;;7.37;2.30;;;20.90;43.00;;;;;;4996859;28;20253;-44
2023/10/06 13:25:23;;;;;;;9.57;2.70;;;21.00;49.30;;;;;;5016178;28;20197;-41